sensor_id;sensor_type;location;lat;lon;timestamp;pressure;altitude;pressure_sealevel;temperature;humidity
39613;BME280;25303;48.896;13.342;2023-05-13T00:01:01;92781.63;;;8.59;70.76
39613;BME280;25303;48.896;13.342;2023-05-13T00:03:45;92773.78;;;8.61;70.45
39613;BME280;25303;48.896;13.342;2023-05-13T00:06:28;92771.88;;;8.63;70.56
39613;BME280;25303;48.896;13.342;2023-05-13T00:09:12;92781.19;;;8.64;70.49
39613;BME280;25303;48.896;13.342;2023-05-13T00:11:55;92777.81;;;8.63;70.67
39613;BME280;25303;48.896;13.342;2023-05-13T00:14:38;92777.81;;;8.63;70.57
39613;BME280;25303;48.896;13.342;2023-05-13T00:17:21;92775.56;;;8.60;70.73
39613;BME280;25303;48.896;13.342;2023-05-13T00:20:05;92772.00;;;8.61;70.60
39613;BME280;25303;48.896;13.342;2023-05-13T00:22:49;92771.88;;;8.63;70.49
39613;BME280;25303;48.896;13.342;2023-05-13T00:25:33;92771.44;;;8.68;70.51
39613;BME280;25303;48.896;13.342;2023-05-13T00:28:16;92778.25;;;8.59;70.74
39613;BME280;25303;48.896;13.342;2023-05-13T00:31:00;92782.53;;;8.68;70.54
39613;BME280;25303;48.896;13.342;2023-05-13T00:33:43;92778.63;;;8.64;70.60
39613;BME280;25303;48.896;13.342;2023-05-13T00:36:26;92778.25;;;8.59;70.83
39613;BME280;25303;48.896;13.342;2023-05-13T00:39:09;92775.13;;;8.65;70.75
39613;BME280;25303;48.896;13.342;2023-05-13T00:41:54;92777.38;;;8.68;70.63
39613;BME280;25303;48.896;13.342;2023-05-13T00:44:37;92777.06;;;8.71;70.55
39613;BME280;25303;48.896;13.342;2023-05-13T00:47:20;92772.75;;;8.72;70.56
39613;BME280;25303;48.896;13.342;2023-05-13T00:50:05;92777.91;;;8.72;70.77
39613;BME280;25303;48.896;13.342;2023-05-13T00:52:49;92785.44;;;8.73;70.66
39613;BME280;25303;48.896;13.342;2023-05-13T00:55:32;92784.34;;;8.76;70.59
39613;BME280;25303;48.896;13.342;2023-05-13T00:58:16;92773.25;;;8.75;70.48
39613;BME280;25303;48.896;13.342;2023-05-13T01:01:06;92777.91;;;8.72;70.89
39613;BME280;25303;48.896;13.342;2023-05-13T01:03:59;92776.28;;;8.71;70.89
39613;BME280;25303;48.896;13.342;2023-05-13T01:06:51;92766.81;;;8.71;71.11
39613;BME280;25303;48.896;13.342;2023-05-13T01:09:47;92779.63;;;8.71;71.06
39613;BME280;25303;48.896;13.342;2023-05-13T01:12:35;92778.75;;;8.62;71.22
39613;BME280;25303;48.896;13.342;2023-05-13T01:15:24;92780.47;;;8.72;71.05
39613;BME280;25303;48.896;13.342;2023-05-13T01:18:09;92775.03;;;8.75;71.26
39613;BME280;25303;48.896;13.342;2023-05-13T01:20:55;92781.25;;;8.72;71.38
39613;BME280;25303;48.896;13.342;2023-05-13T01:23:39;92784.19;;;8.77;71.19
39613;BME280;25303;48.896;13.342;2023-05-13T01:26:23;92785.81;;;8.78;71.01
39613;BME280;25303;48.896;13.342;2023-05-13T01:29:07;92782.94;;;8.81;71.12
39613;BME280;25303;48.896;13.342;2023-05-13T01:31:50;92787.13;;;8.82;71.04
39613;BME280;25303;48.896;13.342;2023-05-13T01:34:37;92785.34;;;8.83;70.88
39613;BME280;25303;48.896;13.342;2023-05-13T01:37:21;92791.31;;;8.84;70.94
39613;BME280;25303;48.896;13.342;2023-05-13T01:40:08;92790.66;;;8.81;70.88
39613;BME280;25303;48.896;13.342;2023-05-13T01:43:12;92787.81;;;8.85;71.10
39613;BME280;25303;48.896;13.342;2023-05-13T01:45:55;92787.81;;;8.85;70.99
39613;BME280;25303;48.896;13.342;2023-05-13T01:48:41;92784.34;;;8.76;71.09
39613;BME280;25303;48.896;13.342;2023-05-13T01:51:24;92782.00;;;8.82;71.11
39613;BME280;25303;48.896;13.342;2023-05-13T01:54:07;92782.00;;;8.82;70.82
39613;BME280;25303;48.896;13.342;2023-05-13T01:56:55;92786.19;;;8.84;71.21
39613;BME280;25303;48.896;13.342;2023-05-13T01:59:38;92781.84;;;8.84;71.09
39613;BME280;25303;48.896;13.342;2023-05-13T02:02:20;92787.81;;;8.85;70.99
39613;BME280;25303;48.896;13.342;2023-05-13T02:05:04;92784.69;;;8.81;71.09
39613;BME280;25303;48.896;13.342;2023-05-13T02:07:47;92778.47;;;8.84;71.01
39613;BME280;25303;48.896;13.342;2023-05-13T02:10:30;92786.97;;;8.84;71.10
39613;BME280;25303;48.896;13.342;2023-05-13T02:13:16;92775.09;;;8.83;71.25
39613;BME280;25303;48.896;13.342;2023-05-13T02:15:59;92786.81;;;8.86;71.26
39613;BME280;25303;48.896;13.342;2023-05-13T02:18:42;92780.72;;;8.87;71.39
39613;BME280;25303;48.896;13.342;2023-05-13T02:21:25;92784.13;;;8.87;71.31
39613;BME280;25303;48.896;13.342;2023-05-13T02:24:08;92783.16;;;8.88;71.23
39613;BME280;25303;48.896;13.342;2023-05-13T02:26:51;92785.44;;;8.91;71.25
39613;BME280;25303;48.896;13.342;2023-05-13T02:29:36;92788.81;;;8.92;71.41
39613;BME280;25303;48.896;13.342;2023-05-13T02:32:19;92796.38;;;8.93;71.39
39613;BME280;25303;48.896;13.342;2023-05-13T02:35:04;92792.69;;;8.96;71.34
39613;BME280;25303;48.896;13.342;2023-05-13T02:37:47;92794.31;;;8.97;71.46
39613;BME280;25303;48.896;13.342;2023-05-13T02:40:30;92794.31;;;8.97;71.15
39613;BME280;25303;48.896;13.342;2023-05-13T02:43:13;92793.34;;;8.98;71.43
39613;BME280;25303;48.896;13.342;2023-05-13T02:46:07;92800.09;;;8.99;71.31
39613;BME280;25303;48.896;13.342;2023-05-13T02:48:50;92789.84;;;8.99;71.24
39613;BME280;25303;48.896;13.342;2023-05-13T02:51:33;92802.50;;;9.01;71.22
39613;BME280;25303;48.896;13.342;2023-05-13T02:54:17;92803.34;;;9.01;71.24
39613;BME280;25303;48.896;13.342;2023-05-13T02:57:00;92800.91;;;9.00;71.48
39613;BME280;25303;48.896;13.342;2023-05-13T02:59:43;92793.34;;;8.98;71.38
39613;BME280;25303;48.896;13.342;2023-05-13T03:02:28;92794.44;;;8.95;71.42
39613;BME280;25303;48.896;13.342;2023-05-13T03:05:11;92797.97;;;8.94;71.51
39613;BME280;25303;48.896;13.342;2023-05-13T03:07:54;92797.16;;;8.94;71.45
39613;BME280;25303;48.896;13.342;2023-05-13T03:10:39;92798.13;;;8.93;71.24
39613;BME280;25303;48.896;13.342;2023-05-13T03:13:22;92800.69;;;8.93;71.39
39613;BME280;25303;48.896;13.342;2023-05-13T03:16:05;92800.84;;;8.91;71.34
39613;BME280;25303;48.896;13.342;2023-05-13T03:18:50;92801.63;;;8.92;71.29
39613;BME280;25303;48.896;13.342;2023-05-13T03:21:33;92805.31;;;8.89;71.42
39613;BME280;25303;48.896;13.342;2023-05-13T03:24:17;92803.72;;;8.88;71.10
39613;BME280;25303;48.896;13.342;2023-05-13T03:27:00;92798.69;;;8.87;71.22
39613;BME280;25303;48.896;13.342;2023-05-13T03:29:44;92807.50;;;8.84;71.16
39613;BME280;25303;48.896;13.342;2023-05-13T03:32:27;92815.06;;;8.86;71.16
39613;BME280;25303;48.896;13.342;2023-05-13T03:35:15;92810.09;;;8.84;71.52
39613;BME280;25303;48.896;13.342;2023-05-13T03:37:58;92818.59;;;8.85;71.47
39613;BME280;25303;48.896;13.342;2023-05-13T03:40:41;92805.09;;;8.82;71.45
39613;BME280;25303;48.896;13.342;2023-05-13T03:43:24;92808.34;;;8.85;71.35
39613;BME280;25303;48.896;13.342;2023-05-13T03:46:12;92803.34;;;8.83;71.43
39613;BME280;25303;48.896;13.342;2023-05-13T03:48:56;92809.28;;;8.84;71.56
39613;BME280;25303;48.896;13.342;2023-05-13T03:51:46;92810.09;;;8.84;71.51
39613;BME280;25303;48.896;13.342;2023-05-13T03:54:29;92802.38;;;8.84;71.62
39613;BME280;25303;48.896;13.342;2023-05-13T03:57:12;92806.84;;;8.82;71.54
39613;BME280;25303;48.896;13.342;2023-05-13T03:59:55;92810.91;;;8.85;71.65
39613;BME280;25303;48.896;13.342;2023-05-13T04:02:38;92812.66;;;8.84;71.79
39613;BME280;25303;48.896;13.342;2023-05-13T04:05:22;92812.50;;;8.86;71.61
39613;BME280;25303;48.896;13.342;2023-05-13T04:08:07;92825.97;;;8.88;71.46
39613;BME280;25303;48.896;13.342;2023-05-13T04:10:51;92823.41;;;8.88;71.37
39613;BME280;25303;48.896;13.342;2023-05-13T04:13:35;92823.41;;;8.88;71.52
39613;BME280;25303;48.896;13.342;2023-05-13T04:16:18;92825.03;;;8.89;71.51
39613;BME280;25303;48.896;13.342;2023-05-13T04:19:02;92821.38;;;8.91;71.62
39613;BME280;25303;48.896;13.342;2023-05-13T04:21:45;92823.00;;;8.92;71.66
39613;BME280;25303;48.896;13.342;2023-05-13T04:24:29;92828.63;;;8.96;71.61
39613;BME280;25303;48.896;13.342;2023-05-13T04:27:12;92836.84;;;9.00;71.56
39613;BME280;25303;48.896;13.342;2023-05-13T04:29:55;92837.34;;;9.03;71.80
39613;BME280;25303;48.896;13.342;2023-05-13T04:32:39;92843.16;;;9.05;71.81
39613;BME280;25303;48.896;13.342;2023-05-13T04:35:24;92850.56;;;9.08;71.80
39613;BME280;25303;48.896;13.342;2023-05-13T04:38:11;92840.97;;;9.10;71.79
39613;BME280;25303;48.896;13.342;2023-05-13T04:40:55;92849.31;;;9.12;71.80
39613;BME280;25303;48.896;13.342;2023-05-13T04:43:47;92848.22;;;9.15;71.93
39613;BME280;25303;48.896;13.342;2023-05-13T04:46:30;92837.81;;;9.17;71.77
39613;BME280;25303;48.896;13.342;2023-05-13T04:49:13;92838.44;;;9.19;71.79
39613;BME280;25303;48.896;13.342;2023-05-13T04:51:56;92848.41;;;9.22;71.77
39613;BME280;25303;48.896;13.342;2023-05-13T04:54:39;92848.00;;;9.26;71.86
39613;BME280;25303;48.896;13.342;2023-05-13T04:57:24;92849.94;;;9.33;71.72
39613;BME280;25303;48.896;13.342;2023-05-13T05:00:09;92849.66;;;9.36;71.64
39613;BME280;25303;48.896;13.342;2023-05-13T05:02:54;92848.25;;;9.41;71.57
39613;BME280;25303;48.896;13.342;2023-05-13T05:05:39;92850.91;;;9.50;71.55
39613;BME280;25303;48.896;13.342;2023-05-13T05:08:23;92855.41;;;9.56;71.81
39613;BME280;25303;48.896;13.342;2023-05-13T05:11:06;92853.88;;;9.63;71.61
39613;BME280;25303;48.896;13.342;2023-05-13T05:13:52;92855.03;;;9.69;71.62
39613;BME280;25303;48.896;13.342;2023-05-13T05:16:35;92852.50;;;9.77;71.33
39613;BME280;25303;48.896;13.342;2023-05-13T05:19:18;92859.25;;;9.78;71.30
39613;BME280;25303;48.896;13.342;2023-05-13T05:22:08;92855.59;;;9.81;71.10
39613;BME280;25303;48.896;13.342;2023-05-13T05:24:51;92856.25;;;9.83;71.04
39613;BME280;25303;48.896;13.342;2023-05-13T05:27:34;92855.78;;;9.87;71.03
39613;BME280;25303;48.896;13.342;2023-05-13T05:30:19;92855.50;;;9.91;71.29
39613;BME280;25303;48.896;13.342;2023-05-13T05:33:10;92853.56;;;9.93;70.99
39613;BME280;25303;48.896;13.342;2023-05-13T05:35:54;92851.78;;;9.93;70.81
39613;BME280;25303;48.896;13.342;2023-05-13T05:38:38;92851.00;;;9.93;70.50
39613;BME280;25303;48.896;13.342;2023-05-13T05:41:24;92850.00;;;9.94;70.44
39613;BME280;25303;48.896;13.342;2023-05-13T05:44:07;92854.84;;;9.97;70.44
39613;BME280;25303;48.896;13.342;2023-05-13T05:46:51;92859.03;;;9.98;70.40
39613;BME280;25303;48.896;13.342;2023-05-13T05:49:35;92850.38;;;9.99;70.20
39613;BME280;25303;48.896;13.342;2023-05-13T05:52:19;92850.88;;;10.02;70.49
39613;BME280;25303;48.896;13.342;2023-05-13T05:55:02;92852.00;;;10.00;69.87
39613;BME280;25303;48.896;13.342;2023-05-13T05:57:46;92854.41;;;10.01;69.48
39613;BME280;25303;48.896;13.342;2023-05-13T06:00:29;92861.81;;;10.04;69.81
39613;BME280;25303;48.896;13.342;2023-05-13T06:03:13;92854.25;;;10.03;69.64
39613;BME280;25303;48.896;13.342;2023-05-13T06:05:56;92855.06;;;10.03;69.43
39613;BME280;25303;48.896;13.342;2023-05-13T06:08:39;92860.84;;;10.06;69.67
39613;BME280;25303;48.896;13.342;2023-05-13T06:11:22;92859.91;;;10.07;69.67
39613;BME280;25303;48.896;13.342;2023-05-13T06:14:06;92859.75;;;10.08;69.67
39613;BME280;25303;48.896;13.342;2023-05-13T06:16:49;92864.44;;;10.13;69.74
39613;BME280;25303;48.896;13.342;2023-05-13T06:19:35;92861.38;;;10.09;69.14
39613;BME280;25303;48.896;13.342;2023-05-13T06:22:18;92867.84;;;10.22;69.54
39613;BME280;25303;48.896;13.342;2023-05-13T06:25:01;92861.28;;;10.27;68.73
39613;BME280;25303;48.896;13.342;2023-05-13T06:27:44;92861.16;;;10.37;69.23
39613;BME280;25303;48.896;13.342;2023-05-13T06:30:27;92861.84;;;10.39;69.47
39613;BME280;25303;48.896;13.342;2023-05-13T06:33:10;92863.66;;;10.47;69.59
39613;BME280;25303;48.896;13.342;2023-05-13T06:35:55;92864.47;;;10.56;69.17
39613;BME280;25303;48.896;13.342;2023-05-13T06:38:39;92867.22;;;10.62;69.12
39613;BME280;25303;48.896;13.342;2023-05-13T06:41:23;92871.59;;;10.70;69.18
39613;BME280;25303;48.896;13.342;2023-05-13T06:44:10;92875.16;;;10.77;68.93
39613;BME280;25303;48.896;13.342;2023-05-13T06:46:57;92873.25;;;10.88;68.82
39613;BME280;25303;48.896;13.342;2023-05-13T06:49:41;92876.78;;;10.95;68.48
39613;BME280;25303;48.896;13.342;2023-05-13T06:52:26;92872.16;;;10.99;68.18
39613;BME280;25303;48.896;13.342;2023-05-13T06:55:09;92875.53;;;10.99;67.88
39613;BME280;25303;48.896;13.342;2023-05-13T06:57:52;92876.97;;;11.02;67.35
39613;BME280;25303;48.896;13.342;2023-05-13T07:00:36;92883.41;;;11.06;67.38
39613;BME280;25303;48.896;13.342;2023-05-13T07:03:19;92876.69;;;11.13;67.51
39613;BME280;25303;48.896;13.342;2023-05-13T07:06:03;92882.97;;;11.19;67.58
39613;BME280;25303;48.896;13.342;2023-05-13T07:08:48;92887.16;;;11.36;67.05
39613;BME280;25303;48.896;13.342;2023-05-13T07:11:31;92886.19;;;11.37;67.12
39613;BME280;25303;48.896;13.342;2023-05-13T07:14:15;92893.28;;;11.35;66.61
39613;BME280;25303;48.896;13.342;2023-05-13T07:16:57;92894.25;;;11.43;66.44
39613;BME280;25303;48.896;13.342;2023-05-13T07:19:42;92892.66;;;11.42;66.43
39613;BME280;25303;48.896;13.342;2023-05-13T07:22:24;92892.00;;;11.48;66.27
39613;BME280;25303;48.896;13.342;2023-05-13T07:25:10;92896.50;;;11.46;66.03
39613;BME280;25303;48.896;13.342;2023-05-13T07:27:54;92907.31;;;11.49;66.24
39613;BME280;25303;48.896;13.342;2023-05-13T07:30:38;92904.25;;;11.54;65.90
39613;BME280;25303;48.896;13.342;2023-05-13T07:33:22;92911.81;;;11.55;65.70
39613;BME280;25303;48.896;13.342;2023-05-13T07:36:06;92904.06;;;11.55;65.62
39613;BME280;25303;48.896;13.342;2023-05-13T07:38:49;92901.19;;;11.59;65.93
39613;BME280;25303;48.896;13.342;2023-05-13T07:41:33;92906.31;;;11.67;66.16
39613;BME280;25303;48.896;13.342;2023-05-13T07:44:16;92910.19;;;11.71;65.44
39613;BME280;25303;48.896;13.342;2023-05-13T07:46:59;92910.69;;;11.66;65.34
39613;BME280;25303;48.896;13.342;2023-05-13T07:49:42;92920.22;;;11.66;65.37
39613;BME280;25303;48.896;13.342;2023-05-13T07:52:26;92919.22;;;11.59;64.99
39613;BME280;25303;48.896;13.342;2023-05-13T07:55:09;92926.00;;;11.43;63.79
39613;BME280;25303;48.896;13.342;2023-05-13T07:57:53;92925.16;;;11.43;64.65
39613;BME280;25303;48.896;13.342;2023-05-13T08:00:36;92927.94;;;11.33;64.55
39613;BME280;25303;48.896;13.342;2023-05-13T08:03:20;92927.94;;;11.33;64.60
39613;BME280;25303;48.896;13.342;2023-05-13T08:06:03;92918.25;;;11.27;64.56
39613;BME280;25303;48.896;13.342;2023-05-13T08:08:47;92928.38;;;11.20;64.62
39613;BME280;25303;48.896;13.342;2023-05-13T08:11:30;92919.53;;;11.31;64.91
39613;BME280;25303;48.896;13.342;2023-05-13T08:14:14;92930.84;;;11.46;65.50
39613;BME280;25303;48.896;13.342;2023-05-13T08:16:57;92932.13;;;11.59;65.45
39613;BME280;25303;48.896;13.342;2023-05-13T08:19:40;92928.44;;;11.69;65.11
39613;BME280;25303;48.896;13.342;2023-05-13T08:22:23;92930.81;;;11.71;64.63
39613;BME280;25303;48.896;13.342;2023-05-13T08:25:08;92930.66;;;11.81;64.58
39613;BME280;25303;48.896;13.342;2023-05-13T08:27:52;92924.69;;;11.89;63.66
39613;BME280;25303;48.896;13.342;2023-05-13T08:30:36;92931.00;;;12.03;64.27
39613;BME280;25303;48.896;13.342;2023-05-13T08:33:21;92925.03;;;12.10;64.18
39613;BME280;25303;48.896;13.342;2023-05-13T08:36:05;92930.81;;;12.21;64.33
39613;BME280;25303;48.896;13.342;2023-05-13T08:38:48;92925.81;;;12.19;63.41
39613;BME280;25303;48.896;13.342;2023-05-13T08:41:33;92922.41;;;12.27;63.64
39613;BME280;25303;48.896;13.342;2023-05-13T08:44:17;92921.81;;;12.08;62.58
39613;BME280;25303;48.896;13.342;2023-05-13T08:47:06;92919.06;;;12.02;61.95
39613;BME280;25303;48.896;13.342;2023-05-13T08:49:51;92929.88;;;12.05;62.94
39613;BME280;25303;48.896;13.342;2023-05-13T08:52:34;92927.28;;;11.97;63.15
39613;BME280;25303;48.896;13.342;2023-05-13T08:55:17;92933.13;;;11.99;63.14
39613;BME280;25303;48.896;13.342;2023-05-13T08:58:01;92943.59;;;12.06;63.63
39613;BME280;25303;48.896;13.342;2023-05-13T09:00:44;92944.72;;;12.03;63.39
39613;BME280;25303;48.896;13.342;2023-05-13T09:03:28;92944.84;;;11.93;63.60
39613;BME280;25303;48.896;13.342;2023-05-13T09:06:12;92945.81;;;11.84;63.56
39613;BME280;25303;48.896;13.342;2023-05-13T09:08:55;92945.34;;;11.80;63.36
39613;BME280;25303;48.896;13.342;2023-05-13T09:11:38;92939.53;;;11.86;63.75
39613;BME280;25303;48.896;13.342;2023-05-13T09:14:30;92945.66;;;11.94;63.52
39613;BME280;25303;48.896;13.342;2023-05-13T09:17:13;92941.78;;;11.98;63.75
39613;BME280;25303;48.896;13.342;2023-05-13T09:20:06;92946.31;;;12.04;63.61
39613;BME280;25303;48.896;13.342;2023-05-13T09:22:50;92941.81;;;12.14;63.87
39613;BME280;25303;48.896;13.342;2023-05-13T09:25:33;92951.16;;;12.15;63.19
39613;BME280;25303;48.896;13.342;2023-05-13T09:28:18;92948.72;;;12.14;63.12
39613;BME280;25303;48.896;13.342;2023-05-13T09:31:02;92947.13;;;12.13;63.50
39613;BME280;25303;48.896;13.342;2023-05-13T09:33:51;92952.75;;;12.16;63.34
39613;BME280;25303;48.896;13.342;2023-05-13T09:36:35;92954.03;;;12.21;63.60
39613;BME280;25303;48.896;13.342;2023-05-13T09:39:18;92955.50;;;12.23;63.53
39613;BME280;25303;48.896;13.342;2023-05-13T09:42:02;92952.75;;;12.25;63.49
39613;BME280;25303;48.896;13.342;2023-05-13T09:44:46;92948.22;;;12.27;63.19
39613;BME280;25303;48.896;13.342;2023-05-13T09:47:30;92956.94;;;12.18;62.72
39613;BME280;25303;48.896;13.342;2023-05-13T09:50:13;92948.91;;;12.12;62.85
39613;BME280;25303;48.896;13.342;2023-05-13T09:53:08;92942.63;;;12.07;61.46
39613;BME280;25303;48.896;13.342;2023-05-13T09:55:52;92945.69;;;12.10;62.52
39613;BME280;25303;48.896;13.342;2023-05-13T09:58:36;92939.53;;;12.20;62.61
39613;BME280;25303;48.896;13.342;2023-05-13T10:01:19;92945.31;;;12.30;62.71
39613;BME280;25303;48.896;13.342;2023-05-13T10:04:02;92937.03;;;12.43;62.90
39613;BME280;25303;48.896;13.342;2023-05-13T10:06:47;92937.38;;;12.48;62.93
39613;BME280;25303;48.896;13.342;2023-05-13T10:09:34;92941.06;;;12.54;62.63
39613;BME280;25303;48.896;13.342;2023-05-13T10:12:19;92942.34;;;12.58;62.32
39613;BME280;25303;48.896;13.342;2023-05-13T10:15:05;92944.47;;;12.54;61.91
39613;BME280;25303;48.896;13.342;2023-05-13T10:17:49;92948.50;;;12.49;61.65
39613;BME280;25303;48.896;13.342;2023-05-13T10:20:32;92947.50;;;12.50;61.96
39613;BME280;25303;48.896;13.342;2023-05-13T10:23:16;92950.47;;;12.38;61.55
39613;BME280;25303;48.896;13.342;2023-05-13T10:26:01;92942.06;;;12.44;61.87
39613;BME280;25303;48.896;13.342;2023-05-13T10:28:44;92950.91;;;12.50;61.86
39613;BME280;25303;48.896;13.342;2023-05-13T10:31:28;92938.78;;;12.59;62.00
39613;BME280;25303;48.896;13.342;2023-05-13T10:34:12;92936.38;;;12.57;60.25
39613;BME280;25303;48.896;13.342;2023-05-13T10:37:07;92934.78;;;12.56;61.28
39613;BME280;25303;48.896;13.342;2023-05-13T10:40:14;92942.81;;;12.61;61.25
39613;BME280;25303;48.896;13.342;2023-05-13T10:43:14;92929.38;;;12.66;61.43
39613;BME280;25303;48.896;13.342;2023-05-13T10:45:59;92935.19;;;12.76;61.85
39613;BME280;25303;48.896;13.342;2023-05-13T10:48:46;92930.97;;;12.75;61.01
39613;BME280;25303;48.896;13.342;2023-05-13T10:51:29;92929.22;;;12.68;61.25
39613;BME280;25303;48.896;13.342;2023-05-13T10:54:17;92927.75;;;12.73;61.18
39613;BME280;25303;48.896;13.342;2023-05-13T10:57:00;92933.03;;;12.88;61.20
39613;BME280;25303;48.896;13.342;2023-05-13T11:00:12;92932.78;;;13.06;60.81
39613;BME280;25303;48.896;13.342;2023-05-13T11:02:56;92934.00;;;13.19;60.84
39613;BME280;25303;48.896;13.342;2023-05-13T11:05:58;92937.00;;;13.31;60.96
39613;BME280;25303;48.896;13.342;2023-05-13T11:08:43;92936.66;;;13.34;60.58
39613;BME280;25303;48.896;13.342;2023-05-13T11:11:29;92938.91;;;13.37;59.83
39613;BME280;25303;48.896;13.342;2023-05-13T11:14:15;92937.59;;;13.41;60.19
39613;BME280;25303;48.896;13.342;2023-05-13T11:17:09;92943.72;;;13.48;60.11
39613;BME280;25303;48.896;13.342;2023-05-13T11:19:53;92944.47;;;13.57;60.16
39613;BME280;25303;48.896;13.342;2023-05-13T11:22:36;92937.25;;;13.67;59.99
39613;BME280;25303;48.896;13.342;2023-05-13T11:25:25;92938.63;;;13.78;59.53
39613;BME280;25303;48.896;13.342;2023-05-13T11:28:13;92934.25;;;14.02;60.12
39613;BME280;25303;48.896;13.342;2023-05-13T11:31:14;92938.41;;;14.26;59.56
39613;BME280;25303;48.896;13.342;2023-05-13T11:34:13;92932.88;;;14.44;58.17
39613;BME280;25303;48.896;13.342;2023-05-13T11:37:05;92935.31;;;14.76;58.38
39613;BME280;25303;48.896;13.342;2023-05-13T11:39:49;92925.34;;;15.10;58.45
39613;BME280;25303;48.896;13.342;2023-05-13T11:42:32;92935.13;;;15.73;59.13
39613;BME280;25303;48.896;13.342;2023-05-13T11:45:15;92928.34;;;16.44;57.57
39613;BME280;25303;48.896;13.342;2023-05-13T11:48:16;92918.38;;;16.89;54.31
39613;BME280;25303;48.896;13.342;2023-05-13T11:51:01;92917.47;;;17.10;55.42
39613;BME280;25303;48.896;13.342;2023-05-13T11:53:44;92921.09;;;17.16;54.50
39613;BME280;25303;48.896;13.342;2023-05-13T11:56:28;92916.09;;;17.08;53.40
39613;BME280;25303;48.896;13.342;2023-05-13T11:59:12;92918.34;;;16.82;53.58
39613;BME280;25303;48.896;13.342;2023-05-13T12:01:59;92918.81;;;16.58;50.49
39613;BME280;25303;48.896;13.342;2023-05-13T12:04:42;92928.13;;;16.45;53.16
39613;BME280;25303;48.896;13.342;2023-05-13T12:07:27;92924.09;;;16.36;53.97
39613;BME280;25303;48.896;13.342;2023-05-13T12:10:10;92928.22;;;16.30;54.63
39613;BME280;25303;48.896;13.342;2023-05-13T12:12:54;92915.31;;;16.08;52.13
39613;BME280;25303;48.896;13.342;2023-05-13T12:15:37;92935.38;;;15.93;53.38
39613;BME280;25303;48.896;13.342;2023-05-13T12:18:20;92930.03;;;15.79;53.58
39613;BME280;25303;48.896;13.342;2023-05-13T12:21:14;92938.06;;;15.41;52.17
39613;BME280;25303;48.896;13.342;2023-05-13T12:23:59;92935.03;;;15.38;53.33
39613;BME280;25303;48.896;13.342;2023-05-13T12:26:42;92930.19;;;15.34;53.17
39613;BME280;25303;48.896;13.342;2023-05-13T12:29:25;92933.22;;;15.38;54.60
39613;BME280;25303;48.896;13.342;2023-05-13T12:32:09;92935.81;;;15.38;54.31
39613;BME280;25303;48.896;13.342;2023-05-13T12:34:53;92938.47;;;15.45;54.21
39613;BME280;25303;48.896;13.342;2023-05-13T12:37:36;92932.03;;;15.41;54.07
39613;BME280;25303;48.896;13.342;2023-05-13T12:40:25;92932.25;;;15.39;53.81
39613;BME280;25303;48.896;13.342;2023-05-13T12:43:09;92936.31;;;15.48;54.08
39613;BME280;25303;48.896;13.342;2023-05-13T12:45:52;92944.34;;;15.54;54.18
39613;BME280;25303;48.896;13.342;2023-05-13T12:48:37;92933.00;;;15.55;54.53
39613;BME280;25303;48.896;13.342;2023-05-13T12:51:20;92936.81;;;15.59;54.00
39613;BME280;25303;48.896;13.342;2023-05-13T12:54:04;92933.41;;;15.37;53.41
39613;BME280;25303;48.896;13.342;2023-05-13T12:56:48;92935.56;;;15.33;53.78
39613;BME280;25303;48.896;13.342;2023-05-13T12:59:31;92930.78;;;15.15;53.49
39613;BME280;25303;48.896;13.342;2023-05-13T13:02:15;92931.56;;;15.15;54.48
39613;BME280;25303;48.896;13.342;2023-05-13T13:04:58;92937.31;;;15.11;54.53
39613;BME280;25303;48.896;13.342;2023-05-13T13:07:41;92938.16;;;14.96;53.88
39613;BME280;25303;48.896;13.342;2023-05-13T13:10:24;92931.38;;;14.80;53.71
39613;BME280;25303;48.896;13.342;2023-05-13T13:13:08;92936.09;;;14.77;54.44
39613;BME280;25303;48.896;13.342;2023-05-13T13:15:52;92928.78;;;14.80;55.00
39613;BME280;25303;48.896;13.342;2023-05-13T13:18:35;92928.94;;;14.94;54.76
39613;BME280;25303;48.896;13.342;2023-05-13T13:21:18;92928.13;;;15.08;54.51
39613;BME280;25303;48.896;13.342;2023-05-13T13:24:01;92931.00;;;15.35;54.82
39613;BME280;25303;48.896;13.342;2023-05-13T13:26:44;92932.00;;;15.77;54.90
39613;BME280;25303;48.896;13.342;2023-05-13T13:29:29;92938.19;;;15.98;53.86
39613;BME280;25303;48.896;13.342;2023-05-13T13:32:12;92929.22;;;16.01;53.67
39613;BME280;25303;48.896;13.342;2023-05-13T13:34:55;92920.63;;;16.29;54.07
39613;BME280;25303;48.896;13.342;2023-05-13T13:37:39;92917.31;;;16.77;53.61
39613;BME280;25303;48.896;13.342;2023-05-13T13:40:21;92919.94;;;17.25;53.26
39613;BME280;25303;48.896;13.342;2023-05-13T13:43:06;92915.41;;;17.48;51.43
39613;BME280;25303;48.896;13.342;2023-05-13T13:45:51;92915.44;;;17.88;51.86
39613;BME280;25303;48.896;13.342;2023-05-13T13:48:34;92914.28;;;18.11;50.46
39613;BME280;25303;48.896;13.342;2023-05-13T13:51:17;92918.44;;;18.38;50.56
39613;BME280;25303;48.896;13.342;2023-05-13T13:54:02;92908.72;;;18.79;50.52
39613;BME280;25303;48.896;13.342;2023-05-13T13:56:46;92901.00;;;19.11;49.00
39613;BME280;25303;48.896;13.342;2023-05-13T13:59:29;92904.34;;;19.32;48.50
39613;BME280;25303;48.896;13.342;2023-05-13T14:02:14;92896.91;;;19.29;47.32
39613;BME280;25303;48.896;13.342;2023-05-13T14:04:57;92895.31;;;19.28;47.48
39613;BME280;25303;48.896;13.342;2023-05-13T14:07:40;92894.09;;;19.37;47.39
39613;BME280;25303;48.896;13.342;2023-05-13T14:10:23;92900.13;;;19.63;48.13
39613;BME280;25303;48.896;13.342;2023-05-13T14:13:06;92900.97;;;19.96;47.00
39613;BME280;25303;48.896;13.342;2023-05-13T14:15:49;92904.31;;;20.03;46.09
39613;BME280;25303;48.896;13.342;2023-05-13T14:18:34;92899.09;;;20.03;46.13
39613;BME280;25303;48.896;13.342;2023-05-13T14:21:17;92900.59;;;20.17;46.90
39613;BME280;25303;48.896;13.342;2023-05-13T14:24:01;92889.03;;;20.07;45.70
39613;BME280;25303;48.896;13.342;2023-05-13T14:26:44;92904.94;;;19.98;46.44